createdAt,value
2022-11-12T00:01:56.637Z,12.51
2022-11-12T00:04:43.295Z,12.41
2022-11-12T00:07:29.953Z,12.50
2022-11-12T00:10:17.109Z,12.49
2022-11-12T00:13:04.035Z,12.52
2022-11-12T00:15:52.120Z,12.59
2022-11-12T00:18:38.772Z,12.45
2022-11-12T00:21:25.433Z,12.49
2022-11-12T00:24:12.045Z,12.45
2022-11-12T00:26:58.546Z,12.44
2022-11-12T00:29:44.890Z,12.46
2022-11-12T00:32:32.538Z,12.44
2022-11-12T00:35:19.047Z,12.46
2022-11-12T00:38:05.834Z,12.49
2022-11-12T00:40:52.299Z,12.47
2022-11-12T00:43:39.033Z,12.44
2022-11-12T00:46:25.508Z,12.47
2022-11-12T00:49:13.566Z,12.51
2022-11-12T00:52:00.109Z,12.49
2022-11-12T00:54:46.787Z,12.50
2022-11-12T00:57:33.358Z,12.45
2022-11-12T01:00:20.555Z,12.42
2022-11-12T01:03:07.318Z,12.53
2022-11-12T01:05:55.086Z,12.48
2022-11-12T01:08:41.671Z,12.48
2022-11-12T01:11:29.160Z,12.45
2022-11-12T01:14:15.889Z,12.43
2022-11-12T01:17:02.171Z,12.50
2022-11-12T01:19:48.745Z,12.49
2022-11-12T01:22:36.511Z,12.57
2022-11-12T01:25:22.806Z,12.54
2022-11-12T01:28:09.417Z,12.48
2022-11-12T01:30:56.087Z,12.55
2022-11-12T01:33:43.045Z,12.50
2022-11-12T01:36:31.833Z,12.49
2022-11-12T01:39:19.687Z,12.50
2022-11-12T01:42:06.496Z,12.48
2022-11-12T01:44:53.826Z,12.48
2022-11-12T01:47:40.533Z,12.51
2022-11-12T01:50:29.601Z,12.45
2022-11-12T01:53:16.226Z,12.45
2022-11-12T01:56:05.108Z,12.50
2022-11-12T01:58:53.958Z,12.49
2022-11-12T02:01:40.752Z,12.45
2022-11-12T02:04:28.366Z,12.51
2022-11-12T02:07:15.093Z,12.43
2022-11-12T02:10:03.651Z,12.44
2022-11-12T02:13:09.833Z,12.37
2022-11-12T02:15:56.888Z,12.37
2022-11-12T02:18:43.172Z,12.37
2022-11-12T02:21:31.422Z,12.53
2022-11-12T02:24:35.198Z,12.44
2022-11-12T02:27:22.180Z,12.49
2022-11-12T02:30:09.153Z,12.35
2022-11-12T02:32:55.663Z,12.31
2022-11-12T02:35:42.566Z,12.13
2022-11-12T02:38:30.567Z,12.15
2022-11-12T02:41:17.119Z,12.11
2022-11-12T02:44:03.752Z,12.03
2022-11-12T02:46:50.289Z,12.06
2022-11-12T02:49:36.937Z,11.99
2022-11-12T02:52:23.505Z,11.95
2022-11-12T02:55:12.144Z,11.94
2022-11-12T02:57:59.336Z,11.78
2022-11-12T03:00:45.970Z,11.77
2022-11-12T03:03:32.397Z,11.63
2022-11-12T03:06:18.887Z,11.64
2022-11-12T03:09:05.457Z,11.59
2022-11-12T03:11:53.157Z,11.56
2022-11-12T03:14:39.447Z,11.53
2022-11-12T03:17:25.820Z,11.45
2022-11-12T03:20:12.542Z,11.43
2022-11-12T03:23:00.205Z,11.40
2022-11-12T03:25:46.881Z,11.42
2022-11-12T03:28:34.810Z,11.44
2022-11-12T03:31:21.128Z,11.48
2022-11-12T03:34:07.893Z,11.41
2022-11-12T03:36:54.151Z,11.44
2022-11-12T03:39:40.316Z,11.38
2022-11-12T03:42:26.635Z,11.33
2022-11-12T03:45:14.122Z,11.40
2022-11-12T03:48:00.512Z,11.41
2022-11-12T03:50:46.882Z,11.41
2022-11-12T03:53:33.489Z,11.36
2022-11-12T03:56:19.877Z,11.39
2022-11-12T03:59:06.429Z,11.37
2022-11-12T04:01:54.078Z,11.38
2022-11-12T04:04:57.396Z,11.55
2022-11-12T04:08:08.862Z,11.50
2022-11-12T04:10:55.553Z,11.54
2022-11-12T04:13:45.540Z,11.63
2022-11-12T04:16:49.589Z,11.59
2022-11-12T04:19:55.055Z,11.55
2022-11-12T04:22:41.553Z,11.69
2022-11-12T04:25:50.591Z,11.65
2022-11-12T04:28:37.192Z,11.70
2022-11-12T04:31:22.867Z,11.70
2022-11-12T04:34:23.284Z,11.76
2022-11-12T04:37:11.454Z,11.76
2022-11-12T04:40:18.827Z,11.78
2022-11-12T04:43:24.654Z,11.85
2022-11-12T04:46:11.503Z,11.82
2022-11-12T04:48:57.921Z,11.76
2022-11-12T04:52:01.915Z,11.76
2022-11-12T04:54:50.023Z,11.84
2022-11-12T04:57:37.002Z,11.76
2022-11-12T05:00:23.593Z,11.72
2022-11-12T05:03:09.959Z,11.77
2022-11-12T05:06:02.071Z,11.75
2022-11-12T05:08:48.411Z,11.69
2022-11-12T05:11:36.175Z,11.79
2022-11-12T05:14:22.945Z,11.85
2022-11-12T05:17:09.244Z,11.75
2022-11-12T05:19:55.892Z,11.74
2022-11-12T05:22:50.451Z,11.70
2022-11-12T05:25:40.686Z,11.78
2022-11-12T05:28:28.801Z,11.75
2022-11-12T05:31:15.497Z,11.64
2022-11-12T05:34:01.963Z,11.63
2022-11-12T05:36:48.432Z,11.74
2022-11-12T05:39:34.917Z,11.66
2022-11-12T05:42:21.227Z,11.55
2022-11-12T05:45:10.530Z,11.68
2022-11-12T05:47:56.926Z,11.70
2022-11-12T05:51:06.196Z,11.69
2022-11-12T05:53:49.292Z,11.66
2022-11-12T05:56:35.938Z,11.62
2022-11-12T05:59:22.828Z,11.51
2022-11-12T06:02:10.542Z,11.65
2022-11-12T06:04:56.836Z,11.48
2022-11-12T06:07:43.151Z,11.42
2022-11-12T06:10:29.535Z,11.52
2022-11-12T06:13:15.915Z,11.42
2022-11-12T06:16:02.306Z,11.51
2022-11-12T06:18:49.807Z,11.63
2022-11-12T06:21:36.632Z,11.68
2022-11-12T06:24:23.569Z,11.67
2022-11-12T06:27:10.199Z,11.67
2022-11-12T06:29:56.778Z,11.73
2022-11-12T06:32:43.367Z,11.67
2022-11-12T06:35:31.251Z,11.68
2022-11-12T06:38:17.996Z,11.81
2022-11-12T06:41:04.628Z,11.81
2022-11-12T06:43:51.285Z,11.78
2022-11-12T06:46:37.717Z,11.76
2022-11-12T06:49:24.111Z,11.73
2022-11-12T06:52:16.369Z,11.74
2022-11-12T06:55:03.169Z,11.69
2022-11-12T06:57:52.739Z,11.79
2022-11-12T07:00:39.252Z,11.78
2022-11-12T07:03:25.912Z,11.81
2022-11-12T07:06:14.086Z,11.90
2022-11-12T07:09:02.014Z,11.96
2022-11-12T07:11:48.541Z,11.92
2022-11-12T07:14:34.981Z,12.02
2022-11-12T07:17:21.472Z,11.93
2022-11-12T07:20:09.561Z,12.01
2022-11-12T07:22:55.949Z,12.04
2022-11-12T07:25:43.521Z,12.15
2022-11-12T07:28:30.546Z,12.21
2022-11-12T07:31:17.785Z,12.17
2022-11-12T07:34:04.307Z,12.44
2022-11-12T07:36:51.857Z,12.26
2022-11-12T07:39:38.210Z,12.20
2022-11-12T07:42:25.856Z,12.38
2022-11-12T07:45:12.292Z,12.35
2022-11-12T07:47:59.990Z,12.39
2022-11-12T07:50:46.246Z,12.29
2022-11-12T07:53:32.840Z,12.29
2022-11-12T07:56:20.546Z,12.33
2022-11-12T07:59:08.574Z,12.44
2022-11-12T08:01:55.042Z,12.44
2022-11-12T08:04:41.371Z,12.42
2022-11-12T08:07:28.283Z,12.42
2022-11-12T08:10:14.917Z,12.49
2022-11-12T08:13:01.375Z,12.51
2022-11-12T08:15:52.224Z,12.60
2022-11-12T08:18:38.893Z,12.58
2022-11-12T08:21:25.391Z,12.60
2022-11-12T08:24:11.925Z,12.60
2022-11-12T08:26:58.164Z,12.67
2022-11-12T08:29:44.726Z,12.76
2022-11-12T08:32:32.862Z,12.65
2022-11-12T08:35:19.597Z,12.70
2022-11-12T08:38:07.640Z,12.58
2022-11-12T08:40:54.162Z,12.71
2022-11-12T08:43:41.932Z,13.02
2022-11-12T08:46:28.347Z,12.90
2022-11-12T08:49:16.221Z,13.15
2022-11-12T08:52:06.016Z,13.16
2022-11-12T08:54:52.321Z,13.16
2022-11-12T08:57:41.451Z,13.07
2022-11-12T09:00:27.900Z,13.05
2022-11-12T09:03:17.052Z,13.13
2022-11-12T09:06:06.273Z,13.22
2022-11-12T09:08:52.596Z,13.24
2022-11-12T09:11:39.425Z,13.26
2022-11-12T09:14:25.829Z,13.06
2022-11-12T09:17:12.434Z,13.25
2022-11-12T09:19:59.303Z,13.27
2022-11-12T09:22:47.331Z,13.27
2022-11-12T09:25:34.353Z,13.26
2022-11-12T09:28:21.033Z,13.33
2022-11-12T09:31:08.358Z,13.24
2022-11-12T09:33:54.920Z,13.36
2022-11-12T09:36:41.530Z,13.57
2022-11-12T09:39:29.352Z,13.45
2022-11-12T09:42:18.928Z,13.46
2022-11-12T09:45:11.684Z,13.54
2022-11-12T09:47:59.973Z,13.35
2022-11-12T09:50:54.624Z,13.43
2022-11-12T09:53:47.004Z,13.52
2022-11-12T09:56:34.797Z,13.60
2022-11-12T09:59:21.858Z,13.65
2022-11-12T10:02:23.351Z,13.77
2022-11-12T10:05:28.164Z,13.81
2022-11-12T10:08:30.335Z,13.78
2022-11-12T10:11:52.251Z,13.85
2022-11-12T10:14:50.857Z,13.81
2022-11-12T10:17:41.852Z,13.68
2022-11-12T10:20:35.991Z,13.60
2022-11-12T10:23:28.735Z,13.55
2022-11-12T10:26:16.544Z,13.71
2022-11-12T10:29:14.345Z,13.63
2022-11-12T10:32:02.380Z,13.47
2022-11-12T10:34:48.703Z,13.46
2022-11-12T10:37:40.709Z,13.61
2022-11-12T10:40:31.309Z,13.63
2022-11-12T10:43:27.179Z,13.65
2022-11-12T10:46:20.060Z,13.79
2022-11-12T10:49:08.496Z,13.65
2022-11-12T10:51:57.027Z,13.84
2022-11-12T10:54:43.440Z,13.86
2022-11-12T10:57:29.720Z,13.75
2022-11-12T11:00:19.276Z,13.78
2022-11-12T11:03:17.568Z,13.78
2022-11-12T11:06:05.510Z,13.90
2022-11-12T11:08:53.313Z,13.84
2022-11-12T11:11:49.676Z,13.97
2022-11-12T11:14:38.238Z,13.89
2022-11-12T11:17:24.585Z,13.96
2022-11-12T11:20:20.246Z,14.07
2022-11-12T11:23:16.011Z,14.18
2022-11-12T11:26:14.469Z,14.22
2022-11-12T11:29:10.335Z,14.31
2022-11-12T11:32:01.085Z,14.61
2022-11-12T11:34:51.542Z,14.41
2022-11-12T11:37:46.835Z,14.50
2022-11-12T11:40:37.777Z,14.73
2022-11-12T11:43:39.475Z,14.69
2022-11-12T11:46:36.975Z,14.99
2022-11-12T11:49:47.144Z,14.89
2022-11-12T11:52:46.935Z,14.77
2022-11-12T11:55:39.752Z,14.74
2022-11-12T11:58:47.899Z,14.85
2022-11-12T12:01:42.737Z,15.03
2022-11-12T12:04:41.358Z,15.11
2022-11-12T12:07:35.465Z,15.10
2022-11-12T12:10:40.228Z,15.15
2022-11-12T12:13:41.288Z,15.56
2022-11-12T12:16:39.692Z,15.61
2022-11-12T12:19:39.571Z,15.54
2022-11-12T12:22:33.101Z,15.39
2022-11-12T12:25:24.801Z,15.26
2022-11-12T12:28:17.003Z,15.18
2022-11-12T12:31:08.345Z,15.38
2022-11-12T12:33:57.611Z,15.35
2022-11-12T12:36:45.349Z,15.10
2022-11-12T12:39:41.284Z,14.85
2022-11-12T12:42:35.587Z,15.11
2022-11-12T12:45:36.107Z,15.11
2022-11-12T12:48:26.316Z,15.28
2022-11-12T12:51:13.066Z,15.17
2022-11-12T12:54:00.118Z,15.05
2022-11-12T12:56:48.338Z,14.99
2022-11-12T12:59:36.082Z,14.84
2022-11-12T13:02:24.099Z,14.88
2022-11-12T13:05:25.380Z,14.93
2022-11-12T13:08:13.056Z,14.63
2022-11-12T13:10:59.725Z,14.61
2022-11-12T13:13:46.378Z,14.82
2022-11-12T13:17:01.260Z,14.84
2022-11-12T13:20:17.852Z,14.75
2022-11-12T13:23:06.378Z,14.95
2022-11-12T13:25:52.772Z,15.11
2022-11-12T13:29:17.573Z,15.29
2022-11-12T13:32:37.043Z,15.42
2022-11-12T13:35:29.356Z,15.44
2022-11-12T13:38:16.501Z,15.30
2022-11-12T13:41:08.826Z,15.50
2022-11-12T13:43:57.004Z,15.22
2022-11-12T13:46:43.998Z,15.29
2022-11-12T13:49:31.795Z,14.99
2022-11-12T13:52:19.988Z,14.96
2022-11-12T13:55:08.757Z,14.83
2022-11-12T13:57:56.049Z,14.73
2022-11-12T14:00:42.350Z,14.59
2022-11-12T14:03:31.801Z,14.79
2022-11-12T14:06:23.539Z,14.78
2022-11-12T14:09:30.858Z,14.69
2022-11-12T14:12:31.063Z,14.19
2022-11-12T14:15:35.741Z,13.92
2022-11-12T14:18:28.903Z,13.85
2022-11-12T14:21:19.317Z,13.79
2022-11-12T14:24:06.326Z,13.81
2022-11-12T14:26:52.832Z,13.70
2022-11-12T14:29:43.515Z,13.73
2022-11-12T14:32:36.726Z,13.78
2022-11-12T14:35:29.947Z,13.83
2022-11-12T14:38:20.072Z,13.79
2022-11-12T14:41:09.841Z,13.76
2022-11-12T14:44:11.530Z,13.66
2022-11-12T14:46:59.781Z,13.52
2022-11-12T14:49:49.201Z,13.54
2022-11-12T14:52:39.397Z,13.52
2022-11-12T14:55:29.597Z,13.48
2022-11-12T14:58:16.779Z,13.41
2022-11-12T15:01:55.715Z,13.45
2022-11-12T15:04:26.374Z,13.41
2022-11-12T15:07:25.293Z,13.40
2022-11-12T15:10:31.667Z,13.33
2022-11-12T15:13:20.980Z,13.26
2022-11-12T15:16:09.434Z,13.35
2022-11-12T15:19:04.358Z,13.32
2022-11-12T15:21:51.884Z,13.23
2022-11-12T15:24:38.975Z,13.19
2022-11-12T15:27:36.458Z,13.21
2022-11-12T15:30:25.429Z,13.18
2022-11-12T15:33:18.994Z,13.19
2022-11-12T15:36:05.844Z,13.11
2022-11-12T15:38:52.866Z,13.07
2022-11-12T15:41:40.043Z,13.06
2022-11-12T15:44:31.568Z,13.13
2022-11-12T15:47:21.763Z,13.13
2022-11-12T15:50:16.287Z,13.11
2022-11-12T15:53:02.971Z,13.09
2022-11-12T15:55:49.642Z,13.15
2022-11-12T15:58:37.353Z,13.12
2022-11-12T16:01:25.065Z,13.10
2022-11-12T16:04:12.533Z,13.11
2022-11-12T16:06:58.905Z,13.06
2022-11-12T16:09:45.150Z,13.04
2022-11-12T16:12:31.724Z,12.93
2022-11-12T16:15:20.541Z,12.95
2022-11-12T16:18:11.005Z,12.91
2022-11-12T16:20:57.929Z,12.86
2022-11-12T16:23:44.905Z,12.82
2022-11-12T16:26:32.085Z,12.70
2022-11-12T16:29:19.118Z,12.72
2022-11-12T16:32:05.747Z,12.80
2022-11-12T16:34:59.885Z,12.81
2022-11-12T16:37:48.131Z,12.69
2022-11-12T16:40:34.374Z,12.66
2022-11-12T16:43:21.011Z,12.66
2022-11-12T16:46:15.036Z,12.68
2022-11-12T16:49:01.368Z,12.72
2022-11-12T16:51:49.470Z,12.75
2022-11-12T16:54:35.971Z,12.67
2022-11-12T16:57:22.593Z,12.73
2022-11-12T17:00:13.130Z,12.62
2022-11-12T17:02:59.445Z,12.52
2022-11-12T17:05:51.991Z,12.53
2022-11-12T17:08:39.833Z,12.53
2022-11-12T17:11:26.368Z,12.47
2022-11-12T17:14:12.599Z,12.51
2022-11-12T17:16:59.201Z,12.42
2022-11-12T17:19:45.472Z,12.37
2022-11-12T17:22:32.215Z,12.49
2022-11-12T17:25:21.379Z,12.41
2022-11-12T17:28:07.917Z,12.35
2022-11-12T17:31:03.583Z,12.36
2022-11-12T17:33:51.057Z,12.37
2022-11-12T17:36:42.311Z,12.44
2022-11-12T17:39:29.858Z,12.34
2022-11-12T17:42:17.805Z,12.38
2022-11-12T17:45:04.373Z,12.24
2022-11-12T17:47:51.003Z,12.24
2022-11-12T17:50:37.660Z,12.26
2022-11-12T17:53:24.451Z,12.23
2022-11-12T17:56:12.234Z,12.29
2022-11-12T17:58:59.898Z,12.30
2022-11-12T18:01:46.572Z,12.25
2022-11-12T18:04:33.168Z,12.25
2022-11-12T18:07:19.710Z,12.22
2022-11-12T18:10:06.794Z,12.20
2022-11-12T18:12:53.273Z,12.10
2022-11-12T18:15:40.998Z,12.16
2022-11-12T18:18:28.013Z,12.15
2022-11-12T18:21:15.252Z,12.10
2022-11-12T18:24:01.618Z,12.18
2022-11-12T18:26:48.086Z,12.13
2022-11-12T18:29:35.936Z,12.11
2022-11-12T18:32:23.465Z,12.01
2022-11-12T18:35:10.437Z,12.23
2022-11-12T18:37:57.437Z,12.17
2022-11-12T18:40:43.804Z,12.07
2022-11-12T18:43:30.473Z,12.10
2022-11-12T18:46:17.023Z,12.10
2022-11-12T18:49:04.661Z,12.05
2022-11-12T18:51:51.164Z,12.15
2022-11-12T18:54:37.802Z,12.07
2022-11-12T18:57:24.293Z,12.06
2022-11-12T19:00:12.942Z,12.07
2022-11-12T19:02:59.409Z,12.06
2022-11-12T19:05:47.849Z,12.00
2022-11-12T19:08:34.693Z,11.94
2022-11-12T19:11:21.852Z,11.85
2022-11-12T19:14:09.033Z,11.88
2022-11-12T19:16:55.378Z,11.83
2022-11-12T19:19:41.903Z,11.89
2022-11-12T19:22:29.971Z,12.00
2022-11-12T19:25:16.474Z,11.95
2022-11-12T19:28:02.798Z,11.76
2022-11-12T19:30:49.503Z,11.82
2022-11-12T19:33:36.086Z,11.85
2022-11-12T19:36:23.882Z,11.90
2022-11-12T19:39:11.589Z,11.85
2022-11-12T19:41:58.015Z,11.73
2022-11-12T19:44:44.518Z,11.68
2022-11-12T19:47:30.964Z,11.73
2022-11-12T19:50:22.145Z,11.70
2022-11-12T19:53:11.114Z,11.66
2022-11-12T19:56:02.431Z,11.60
2022-11-12T19:58:50.077Z,11.51
2022-11-12T20:01:36.763Z,11.33
2022-11-12T20:04:24.451Z,11.35
2022-11-12T20:07:11.498Z,11.35
2022-11-12T20:10:00.919Z,11.36
2022-11-12T20:12:49.384Z,11.33
2022-11-12T20:15:38.906Z,11.37
2022-11-12T20:18:26.518Z,11.28
2022-11-12T20:21:14.334Z,11.23
2022-11-12T20:24:01.582Z,11.19
2022-11-12T20:26:47.959Z,11.14
2022-11-12T20:29:35.821Z,11.21
2022-11-12T20:32:22.982Z,11.20
2022-11-12T20:35:17.794Z,11.02
2022-11-12T20:38:07.660Z,11.10
2022-11-12T20:40:59.972Z,11.06
2022-11-12T20:43:46.706Z,11.01
2022-11-12T20:46:34.572Z,10.99
2022-11-12T20:49:20.888Z,10.98
2022-11-12T20:52:07.519Z,10.90
2022-11-12T20:54:53.930Z,10.91
2022-11-12T20:57:40.271Z,10.83
2022-11-12T21:00:26.924Z,10.80
2022-11-12T21:03:14.894Z,10.88
2022-11-12T21:06:02.340Z,10.87
2022-11-12T21:08:48.940Z,10.90
2022-11-12T21:11:35.524Z,10.84
2022-11-12T21:14:21.981Z,10.75
2022-11-12T21:17:08.817Z,10.89
2022-11-12T21:19:56.748Z,10.89
2022-11-12T21:22:43.191Z,10.81
2022-11-12T21:25:29.683Z,10.75
2022-11-12T21:28:16.264Z,10.75
2022-11-12T21:31:04.717Z,10.93
2022-11-12T21:33:51.517Z,10.91
2022-11-12T21:36:39.307Z,10.84
2022-11-12T21:39:25.965Z,10.84
2022-11-12T21:42:12.422Z,10.81
2022-11-12T21:44:58.988Z,10.90
2022-11-12T21:47:45.360Z,10.91
2022-11-12T21:50:31.833Z,10.89
2022-11-12T21:53:19.715Z,10.94
2022-11-12T21:56:08.070Z,11.00
2022-11-12T21:58:59.220Z,11.02
2022-11-12T22:01:45.784Z,11.03
2022-11-12T22:04:32.056Z,11.01
2022-11-12T22:07:18.440Z,11.11
2022-11-12T22:10:07.291Z,11.10
2022-11-12T22:13:24.682Z,11.20
2022-11-12T22:16:00.480Z,11.18
2022-11-12T22:18:48.186Z,11.25
2022-11-12T22:21:39.681Z,11.18
2022-11-12T22:24:26.569Z,11.35
2022-11-12T22:27:14.070Z,11.34
2022-11-12T22:30:00.957Z,11.28
2022-11-12T22:32:47.253Z,11.26
2022-11-12T22:35:35.266Z,11.32
2022-11-12T22:38:21.805Z,11.31
2022-11-12T22:41:09.997Z,11.36
2022-11-12T22:43:59.283Z,11.42
2022-11-12T22:46:45.902Z,11.40
2022-11-12T22:49:32.470Z,11.57
2022-11-12T22:52:19.086Z,11.56
2022-11-12T22:55:06.432Z,11.58
2022-11-12T22:57:52.846Z,11.56
2022-11-12T23:00:40.849Z,11.55
2022-11-12T23:03:27.345Z,11.53
2022-11-12T23:06:13.753Z,11.47
2022-11-12T23:09:01.025Z,11.48
2022-11-12T23:11:47.552Z,11.50
2022-11-12T23:14:34.617Z,11.58
2022-11-12T23:17:22.413Z,11.62
2022-11-12T23:20:10.460Z,11.78
2022-11-12T23:22:56.980Z,11.73
2022-11-12T23:25:43.991Z,11.83
2022-11-12T23:28:30.633Z,11.68
2022-11-12T23:31:18.545Z,11.68
2022-11-12T23:34:06.704Z,11.70
2022-11-12T23:36:53.160Z,11.65
2022-11-12T23:39:39.713Z,11.83
2022-11-12T23:42:26.197Z,11.73
2022-11-12T23:45:12.818Z,11.86
2022-11-12T23:47:59.425Z,11.81
2022-11-12T23:50:48.559Z,11.74
2022-11-12T23:53:36.032Z,11.69
2022-11-12T23:56:22.622Z,11.69
2022-11-12T23:59:09.025Z,11.67
